createdAt,value
2023-04-21T00:00:49.210Z,15.55
2023-04-21T00:03:17.865Z,15.55
2023-04-21T00:05:46.140Z,15.86
2023-04-21T00:08:14.108Z,15.42
2023-04-21T00:10:41.995Z,15.38
2023-04-21T00:13:10.317Z,15.61
2023-04-21T00:15:39.715Z,15.22
2023-04-21T00:18:07.820Z,15.40
2023-04-21T00:20:35.777Z,15.37
2023-04-21T00:23:04.103Z,15.48
2023-04-21T00:25:32.002Z,15.52
2023-04-21T00:27:59.910Z,15.28
2023-04-21T00:30:27.752Z,15.38
2023-04-21T00:32:57.054Z,15.33
2023-04-21T00:35:24.966Z,15.37
2023-04-21T00:37:52.947Z,15.27
2023-04-21T00:40:20.960Z,15.28
2023-04-21T00:42:48.877Z,15.36
2023-04-21T00:45:16.753Z,15.30
2023-04-21T00:47:44.791Z,15.03
2023-04-21T00:50:14.367Z,14.98
2023-04-21T00:52:44.456Z,14.98
2023-04-21T00:55:12.906Z,14.81
2023-04-21T00:57:40.948Z,15.04
2023-04-21T01:00:10.622Z,15.05
2023-04-21T01:02:40.300Z,14.96
2023-04-21T01:05:09.954Z,15.23
2023-04-21T01:07:41.154Z,15.06
2023-04-21T01:10:10.090Z,14.84
2023-04-21T01:12:44.201Z,14.95
2023-04-21T01:15:12.681Z,15.07
2023-04-21T01:17:40.548Z,14.92
2023-04-21T01:20:10.897Z,14.94
2023-04-21T01:22:41.679Z,14.34
2023-04-21T01:25:10.376Z,14.36
2023-04-21T01:27:38.624Z,14.74
2023-04-21T01:30:08.657Z,14.50
2023-04-21T01:32:37.111Z,14.25
2023-04-21T01:35:06.542Z,14.47
2023-04-21T01:37:35.115Z,14.54
2023-04-21T01:40:07.344Z,14.46
2023-04-21T01:42:36.625Z,14.58
2023-04-21T01:45:05.278Z,14.63
2023-04-21T01:47:33.247Z,14.28
2023-04-21T01:50:01.060Z,14.55
2023-04-21T01:52:28.966Z,14.44
2023-04-21T01:54:56.866Z,14.01
2023-04-21T01:57:26.119Z,14.26
2023-04-21T01:59:54.358Z,14.12
2023-04-21T02:02:22.408Z,13.93
2023-04-21T02:04:52.216Z,14.35
2023-04-21T02:07:20.168Z,14.28
2023-04-21T02:09:48.112Z,14.32
2023-04-21T02:12:16.148Z,14.29
2023-04-21T02:14:47.272Z,14.41
2023-04-21T02:17:15.445Z,14.42
2023-04-21T02:19:43.262Z,14.20
2023-04-21T02:22:12.928Z,14.11
2023-04-21T02:24:40.812Z,14.20
2023-04-21T02:27:08.676Z,13.95
2023-04-21T02:29:36.672Z,14.26
2023-04-21T02:34:39.082Z,14.02
2023-04-21T02:37:06.962Z,14.04
2023-04-21T02:39:34.786Z,13.96
2023-04-21T02:42:03.069Z,14.03
2023-04-21T02:44:31.127Z,14.20
2023-04-21T02:46:59.111Z,14.15
2023-04-21T02:49:28.312Z,13.91
2023-04-21T02:51:59.344Z,13.89
2023-04-21T02:54:27.249Z,14.07
2023-04-21T02:56:55.099Z,14.11
2023-04-21T02:59:23.057Z,13.85
2023-04-21T03:01:51.054Z,13.95
2023-04-21T03:04:19.760Z,13.73
2023-04-21T03:06:49.121Z,13.95
2023-04-21T03:09:17.013Z,14.01
2023-04-21T03:11:44.917Z,14.08
2023-04-21T03:14:13.182Z,13.87
2023-04-21T03:16:41.250Z,14.15
2023-04-21T03:19:09.189Z,13.87
2023-04-21T03:21:39.161Z,13.70
2023-04-21T03:24:08.771Z,13.95
2023-04-21T03:26:36.704Z,13.62
2023-04-21T03:29:04.569Z,13.44
2023-04-21T03:31:32.593Z,13.74
2023-04-21T03:34:00.495Z,13.44
2023-04-21T03:36:29.568Z,13.86
2023-04-21T03:39:05.958Z,13.77
2023-04-21T03:41:42.384Z,13.77
2023-04-21T03:44:10.779Z,13.65
2023-04-21T03:46:40.800Z,13.63
2023-04-21T03:49:08.669Z,13.91
2023-04-21T03:51:36.518Z,13.81
2023-04-21T03:54:04.584Z,13.69
2023-04-21T03:56:32.517Z,13.86
2023-04-21T03:59:01.694Z,13.89
2023-04-21T04:01:30.424Z,13.68
2023-04-21T04:03:58.329Z,13.53
2023-04-21T04:06:26.563Z,13.51
2023-04-21T04:08:54.380Z,13.65
2023-04-21T04:11:22.330Z,13.60
2023-04-21T04:13:50.193Z,13.45
2023-04-21T04:16:19.563Z,13.12
2023-04-21T04:18:47.446Z,13.25
2023-04-21T04:21:15.241Z,13.58
2023-04-21T04:23:44.368Z,13.06
2023-04-21T04:26:12.295Z,13.41
2023-04-21T04:28:40.354Z,13.10
2023-04-21T04:31:08.319Z,13.57
2023-04-21T04:33:37.586Z,13.32
2023-04-21T04:36:05.567Z,13.71
2023-04-21T04:38:35.501Z,13.84
2023-04-21T04:41:03.294Z,13.86
2023-04-21T04:43:33.482Z,13.80
2023-04-21T04:46:01.480Z,13.82
2023-04-21T04:48:29.321Z,13.84
2023-04-21T04:50:58.607Z,13.49
2023-04-21T04:53:26.503Z,13.22
2023-04-21T04:55:54.612Z,13.54
2023-04-21T04:58:22.671Z,13.66
2023-04-21T05:00:50.716Z,13.66
2023-04-21T05:03:19.004Z,13.86
2023-04-21T05:05:47.147Z,13.72
2023-04-21T05:08:18.013Z,13.49
2023-04-21T05:10:46.186Z,13.63
2023-04-21T05:13:14.021Z,13.85
2023-04-21T05:15:41.815Z,13.79
2023-04-21T05:18:09.694Z,13.85
2023-04-21T05:20:37.563Z,14.14
2023-04-21T05:23:05.462Z,14.00
2023-04-21T05:25:34.666Z,14.07
2023-04-21T05:28:02.478Z,14.22
2023-04-21T05:30:30.298Z,14.23
2023-04-21T05:32:58.237Z,14.01
2023-04-21T05:35:26.238Z,14.51
2023-04-21T05:37:54.085Z,14.30
2023-04-21T05:40:22.009Z,14.63
2023-04-21T05:42:51.220Z,14.33
2023-04-21T05:45:19.528Z,14.43
2023-04-21T05:47:47.486Z,15.77
2023-04-21T05:50:16.421Z,17.58
2023-04-21T05:52:44.243Z,17.80
2023-04-21T05:55:12.098Z,17.03
2023-04-21T05:57:39.960Z,16.61
2023-04-21T06:00:11.012Z,16.55
2023-04-21T06:02:39.089Z,16.21
2023-04-21T06:05:07.537Z,16.34
2023-04-21T06:07:37.970Z,16.16
2023-04-21T06:10:06.384Z,15.85
2023-04-21T06:12:34.279Z,15.98
2023-04-21T06:15:02.165Z,16.25
2023-04-21T06:17:31.482Z,15.67
2023-04-21T06:19:59.504Z,15.48
2023-04-21T06:22:28.462Z,15.63
2023-04-21T06:24:56.672Z,16.35
2023-04-21T06:27:25.388Z,15.69
2023-04-21T06:29:55.617Z,16.51
2023-04-21T06:32:23.538Z,16.34
2023-04-21T06:34:52.900Z,16.98
2023-04-21T06:37:20.699Z,16.96
2023-04-21T06:39:48.526Z,17.11
2023-04-21T06:42:16.402Z,16.87
2023-04-21T06:44:44.347Z,15.88
2023-04-21T06:47:12.231Z,15.82
2023-04-21T06:49:40.201Z,16.74
2023-04-21T06:52:09.464Z,16.53
2023-04-21T06:54:38.360Z,16.32
2023-04-21T06:57:06.662Z,16.46
2023-04-21T06:59:35.097Z,15.88
2023-04-21T07:02:03.031Z,16.56
2023-04-21T07:04:32.328Z,16.24
2023-04-21T07:07:03.012Z,16.61
2023-04-21T07:09:33.910Z,16.42
2023-04-21T07:12:02.696Z,17.50
2023-04-21T07:14:30.888Z,18.08
2023-04-21T07:16:59.366Z,17.91
2023-04-21T07:19:27.565Z,18.44
2023-04-21T07:21:55.639Z,18.04
2023-04-21T07:24:23.513Z,17.96
2023-04-21T07:26:52.765Z,17.93
2023-04-21T07:29:20.961Z,17.43
2023-04-21T07:31:48.951Z,17.86
2023-04-21T07:34:17.122Z,18.40
2023-04-21T07:36:44.961Z,18.88
2023-04-21T07:39:12.977Z,18.90
2023-04-21T07:41:40.881Z,18.83
2023-04-21T07:44:10.129Z,19.01
2023-04-21T07:46:38.242Z,19.41
2023-04-21T07:49:06.344Z,18.44
2023-04-21T07:51:34.358Z,18.66
2023-04-21T07:54:02.327Z,18.42
2023-04-21T07:56:30.558Z,18.62
2023-04-21T07:58:58.528Z,18.66
2023-04-21T08:01:27.770Z,18.65
2023-04-21T08:03:55.701Z,19.08
2023-04-21T08:06:23.990Z,18.20
2023-04-21T08:08:51.888Z,17.42
2023-04-21T08:11:19.810Z,17.83
2023-04-21T08:13:47.805Z,18.04
2023-04-21T08:16:15.886Z,18.11
2023-04-21T08:18:45.436Z,18.32
2023-04-21T08:21:14.072Z,18.75
2023-04-21T08:23:42.087Z,18.59
2023-04-21T08:26:10.882Z,19.77
2023-04-21T08:28:38.810Z,18.96
2023-04-21T08:31:06.949Z,19.32
2023-04-21T08:33:35.516Z,18.98
2023-04-21T08:36:15.217Z,19.26
2023-04-21T08:38:50.276Z,19.67
2023-04-21T08:41:18.176Z,19.77
2023-04-21T08:43:46.081Z,19.08
2023-04-21T08:46:14.447Z,19.66
2023-04-21T08:48:42.490Z,19.79
2023-04-21T08:51:11.954Z,19.82
2023-04-21T08:53:42.395Z,19.82
2023-04-21T08:56:11.843Z,20.48
2023-04-21T08:58:41.357Z,20.57
2023-04-21T09:01:09.308Z,20.88
2023-04-21T09:03:37.528Z,20.95
2023-04-21T09:06:07.816Z,21.22
2023-04-21T09:08:39.929Z,20.81
2023-04-21T09:11:07.885Z,20.92
2023-04-21T09:13:36.969Z,21.85
2023-04-21T09:16:08.566Z,21.89
2023-04-21T09:18:40.301Z,21.00
2023-04-21T09:21:10.711Z,21.55
2023-04-21T09:23:48.169Z,22.27
2023-04-21T09:26:17.042Z,21.95
2023-04-21T09:28:45.731Z,23.05
2023-04-21T09:31:19.798Z,23.04
2023-04-21T09:33:57.788Z,23.68
2023-04-21T09:36:29.033Z,23.52
2023-04-21T09:39:25.106Z,24.06
2023-04-21T09:41:47.198Z,23.63
2023-04-21T09:44:15.080Z,24.20
2023-04-21T09:46:45.225Z,24.40
2023-04-21T09:49:15.097Z,23.82
2023-04-21T09:52:14.252Z,22.23
2023-04-21T09:54:35.251Z,24.22
2023-04-21T09:57:05.264Z,24.52
2023-04-21T09:59:36.728Z,25.02
2023-04-21T10:02:07.810Z,25.01
2023-04-21T10:04:38.303Z,24.96
2023-04-21T10:07:07.928Z,24.72
2023-04-21T10:09:41.877Z,24.78
2023-04-21T10:12:10.870Z,24.34
2023-04-21T10:14:38.730Z,24.54
2023-04-21T10:17:09.208Z,23.71
2023-04-21T10:19:40.142Z,25.08
2023-04-21T10:22:09.796Z,23.75
2023-04-21T10:24:43.342Z,23.12
2023-04-21T10:27:12.630Z,23.55
2023-04-21T10:29:55.434Z,23.41
2023-04-21T10:32:33.674Z,24.58
2023-04-21T10:35:01.900Z,24.25
2023-04-21T10:37:32.732Z,23.78
2023-04-21T10:40:01.955Z,24.82
2023-04-21T10:42:34.843Z,24.38
2023-04-21T10:45:12.574Z,23.70
2023-04-21T10:47:46.485Z,25.06
2023-04-21T10:50:20.783Z,25.53
2023-04-21T10:52:54.493Z,23.84
2023-04-21T10:55:23.953Z,25.40
2023-04-21T10:57:51.854Z,24.87
2023-04-21T11:00:22.891Z,24.93
2023-04-21T11:02:58.681Z,23.69
2023-04-21T11:05:36.447Z,25.05
2023-04-21T11:08:12.913Z,24.62
2023-04-21T11:10:54.882Z,25.22
2023-04-21T11:13:24.221Z,25.81
2023-04-21T11:16:03.851Z,24.55
2023-04-21T11:18:38.272Z,24.01
2023-04-21T11:21:17.904Z,24.24
2023-04-21T11:23:56.333Z,23.96
2023-04-21T11:26:38.163Z,23.81
2023-04-21T11:29:08.259Z,23.85
2023-04-21T11:31:37.566Z,24.14
2023-04-21T11:34:07.367Z,24.76
2023-04-21T11:36:35.492Z,23.86
2023-04-21T11:39:08.168Z,24.37
2023-04-21T11:41:40.140Z,24.53
2023-04-21T11:44:08.192Z,23.15
2023-04-21T11:46:37.277Z,24.38
2023-04-21T11:49:06.660Z,24.83
2023-04-21T11:51:36.079Z,24.66
2023-04-21T11:54:06.755Z,23.72
2023-04-21T11:56:38.229Z,24.08
2023-04-21T11:59:09.558Z,23.57
2023-04-21T12:01:44.616Z,24.42
2023-04-21T12:04:18.158Z,23.17
2023-04-21T12:06:47.045Z,23.96
2023-04-21T12:09:19.552Z,23.36
2023-04-21T12:11:51.010Z,24.32
2023-04-21T12:14:19.662Z,24.02
2023-04-21T12:16:50.135Z,23.60
2023-04-21T12:19:23.776Z,24.66
2023-04-21T12:21:54.535Z,24.09
2023-04-21T12:24:22.375Z,23.88
2023-04-21T12:26:51.651Z,23.14
2023-04-21T12:29:19.623Z,23.02
2023-04-21T12:31:47.548Z,23.15
2023-04-21T12:34:16.149Z,22.41
2023-04-21T12:36:44.255Z,23.36
2023-04-21T12:39:13.490Z,23.25
2023-04-21T12:41:41.847Z,23.07
2023-04-21T12:44:11.050Z,23.90
2023-04-21T12:46:39.134Z,24.05
2023-04-21T12:49:07.619Z,22.83
2023-04-21T12:51:35.984Z,22.46
2023-04-21T12:54:03.817Z,21.53
2023-04-21T12:56:31.880Z,22.42
2023-04-21T12:58:59.794Z,23.54
2023-04-21T13:01:29.506Z,23.87
2023-04-21T13:03:57.732Z,24.00
2023-04-21T13:06:26.248Z,23.60
2023-04-21T13:08:54.096Z,23.45
2023-04-21T13:11:21.964Z,23.35
2023-04-21T13:13:49.789Z,22.86
2023-04-21T13:16:17.984Z,23.25
2023-04-21T13:18:47.494Z,22.92
2023-04-21T13:21:15.585Z,22.33
2023-04-21T13:23:43.482Z,22.78
2023-04-21T13:26:11.506Z,23.15
2023-04-21T13:28:39.481Z,23.18
2023-04-21T13:31:07.885Z,23.56
2023-04-21T13:33:36.001Z,23.54
2023-04-21T13:36:05.747Z,23.28
2023-04-21T13:38:34.027Z,23.64
2023-04-21T13:41:02.209Z,22.79
2023-04-21T13:43:30.115Z,22.73
2023-04-21T13:45:58.719Z,23.35
2023-04-21T13:48:26.729Z,23.66
2023-04-21T13:50:54.624Z,22.99
2023-04-21T13:53:23.988Z,22.72
2023-04-21T13:55:52.905Z,23.07
2023-04-21T13:58:20.908Z,23.17
2023-04-21T14:00:48.790Z,22.25
2023-04-21T14:03:16.856Z,22.52
2023-04-21T14:05:44.991Z,22.83
2023-04-21T14:08:13.032Z,23.55
2023-04-21T14:10:42.285Z,23.73
2023-04-21T14:13:17.434Z,23.37
2023-04-21T14:15:55.235Z,22.65
2023-04-21T14:18:23.248Z,22.30
2023-04-21T14:20:51.211Z,23.23
2023-04-21T14:23:19.101Z,23.37
2023-04-21T14:25:48.348Z,23.17
2023-04-21T14:28:16.172Z,22.23
2023-04-21T14:30:44.180Z,22.10
2023-04-21T14:33:12.084Z,23.13
2023-04-21T14:35:40.055Z,22.04
2023-04-21T14:38:08.418Z,22.86
2023-04-21T14:40:36.375Z,23.43
2023-04-21T14:43:05.940Z,23.26
2023-04-21T14:45:34.127Z,22.90
2023-04-21T14:48:02.400Z,23.20
2023-04-21T14:50:30.759Z,23.25
2023-04-21T14:52:58.688Z,22.50
2023-04-21T14:55:26.672Z,22.45
2023-04-21T14:57:54.504Z,23.18
2023-04-21T15:00:24.215Z,22.98
2023-04-21T15:02:52.211Z,22.94
2023-04-21T15:05:20.245Z,22.65
2023-04-21T15:07:48.200Z,23.16
2023-04-21T15:10:16.078Z,23.53
2023-04-21T15:12:44.902Z,23.31
2023-04-21T15:15:13.126Z,22.73
2023-04-21T15:17:42.330Z,22.64
2023-04-21T15:20:11.208Z,22.65
2023-04-21T15:22:39.202Z,22.27
2023-04-21T15:25:07.688Z,23.22
2023-04-21T15:27:36.683Z,23.16
2023-04-21T15:30:05.118Z,22.21
2023-04-21T15:32:32.996Z,22.20
2023-04-21T15:35:02.339Z,22.46
2023-04-21T15:37:30.251Z,22.53
2023-04-21T15:39:58.166Z,22.14
2023-04-21T15:42:26.231Z,22.07
2023-04-21T15:44:54.574Z,22.34
2023-04-21T15:47:23.032Z,22.75
2023-04-21T15:49:50.969Z,22.72
2023-04-21T15:52:20.492Z,22.44
2023-04-21T15:54:48.462Z,22.64
2023-04-21T15:57:16.510Z,22.88
2023-04-21T15:59:44.375Z,22.76
2023-04-21T16:02:12.751Z,22.06
2023-04-21T16:04:41.098Z,21.98
2023-04-21T16:07:09.729Z,21.69
2023-04-21T16:09:38.971Z,22.08
2023-04-21T16:12:10.068Z,22.18
2023-04-21T16:14:53.544Z,22.49
2023-04-21T16:17:26.629Z,22.87
2023-04-21T16:19:55.006Z,22.73
2023-04-21T16:22:22.937Z,22.14
2023-04-21T16:24:53.128Z,21.68
2023-04-21T16:27:21.291Z,22.09
2023-04-21T16:29:50.224Z,21.88
2023-04-21T16:32:18.148Z,22.26
2023-04-21T16:34:46.194Z,22.06
2023-04-21T16:37:14.132Z,22.02
2023-04-21T16:39:42.021Z,22.14
2023-04-21T16:42:11.200Z,21.88
2023-04-21T16:44:39.484Z,21.83
2023-04-21T16:47:08.083Z,21.42
2023-04-21T16:49:35.973Z,21.66
2023-04-21T16:52:03.834Z,21.36
2023-04-21T16:54:31.691Z,21.23
2023-04-21T16:56:59.567Z,21.03
2023-04-21T16:59:30.213Z,21.51
2023-04-21T17:01:58.887Z,21.81
2023-04-21T17:04:26.817Z,21.68
2023-04-21T17:06:54.967Z,21.36
2023-04-21T17:09:22.796Z,21.83
2023-04-21T17:11:50.661Z,21.96
2023-04-21T17:14:18.488Z,21.64
2023-04-21T17:16:47.800Z,21.56
2023-04-21T17:19:15.717Z,21.56
2023-04-21T17:21:43.739Z,20.92
2023-04-21T17:24:11.696Z,21.22
2023-04-21T17:26:39.546Z,21.01
2023-04-21T17:29:08.190Z,20.86
2023-04-21T17:31:36.441Z,20.92
2023-04-21T17:34:06.136Z,20.91
2023-04-21T17:36:34.106Z,20.64
2023-04-21T17:39:01.924Z,20.99
2023-04-21T17:41:29.872Z,20.85
2023-04-21T17:43:57.728Z,20.68
2023-04-21T17:46:26.434Z,21.01
2023-04-21T17:48:54.860Z,20.66
2023-04-21T17:51:24.678Z,21.01
2023-04-21T17:53:53.171Z,20.57
2023-04-21T17:56:21.272Z,20.74
2023-04-21T17:58:49.091Z,20.76
2023-04-21T18:01:16.961Z,20.84
2023-04-21T18:03:45.077Z,20.62
2023-04-21T18:06:15.958Z,20.52
2023-04-21T18:08:45.331Z,20.62
2023-04-21T18:11:13.338Z,20.64
2023-04-21T18:13:41.369Z,20.49
2023-04-21T18:16:09.282Z,20.13
2023-04-21T18:18:37.580Z,20.28
2023-04-21T18:21:05.951Z,20.16
2023-04-21T18:23:33.799Z,20.31
2023-04-21T18:26:03.096Z,20.39
2023-04-21T18:28:31.929Z,20.51
2023-04-21T18:31:00.689Z,20.37
2023-04-21T18:33:28.703Z,20.20
2023-04-21T18:35:56.562Z,20.01
2023-04-21T18:38:24.483Z,20.32
2023-04-21T18:40:52.455Z,20.19
2023-04-21T18:43:22.292Z,19.79
2023-04-21T18:45:50.198Z,19.75
2023-04-21T18:48:18.041Z,19.72
2023-04-21T18:50:46.830Z,19.82
2023-04-21T18:53:14.789Z,20.02
2023-04-21T18:55:42.651Z,19.86
2023-04-21T18:58:10.836Z,19.75
2023-04-21T19:00:40.679Z,19.53
2023-04-21T19:03:09.704Z,19.43
2023-04-21T19:05:40.376Z,19.37
2023-04-21T19:08:10.136Z,19.62
2023-04-21T19:10:38.717Z,19.86
2023-04-21T19:13:06.700Z,19.66
2023-04-21T19:15:35.079Z,19.87
2023-04-21T19:18:04.327Z,19.86
2023-04-21T19:20:32.868Z,19.27
2023-04-21T19:23:00.747Z,19.29
2023-04-21T19:25:28.704Z,19.00
2023-04-21T19:27:56.564Z,19.40
2023-04-21T19:30:24.596Z,19.34
2023-04-21T19:32:52.448Z,19.21
2023-04-21T19:35:22.144Z,19.28
2023-04-21T19:37:50.043Z,19.15
2023-04-21T19:40:17.975Z,19.24
2023-04-21T19:42:45.998Z,19.07
2023-04-21T19:45:14.139Z,19.27
2023-04-21T19:47:42.015Z,19.21
2023-04-21T19:50:11.189Z,19.29
2023-04-21T19:52:40.454Z,18.90
2023-04-21T19:55:08.969Z,19.06
2023-04-21T19:57:36.909Z,19.22
2023-04-21T20:00:09.070Z,19.24
2023-04-21T20:02:40.335Z,19.02
2023-04-21T20:05:09.494Z,19.00
2023-04-21T20:07:37.663Z,19.07
2023-04-21T20:10:08.008Z,19.01
2023-04-21T20:12:36.221Z,19.05
2023-04-21T20:15:05.640Z,18.56
2023-04-21T20:17:33.559Z,18.40
2023-04-21T20:20:01.430Z,18.33
2023-04-21T20:22:29.300Z,18.55
2023-04-21T20:24:58.031Z,18.11
2023-04-21T20:27:27.776Z,18.27
2023-04-21T20:29:56.106Z,18.17
2023-04-21T20:32:23.968Z,18.46
2023-04-21T20:34:53.368Z,18.12
2023-04-21T20:37:23.023Z,18.04
2023-04-21T20:39:51.152Z,18.09
2023-04-21T20:42:19.287Z,18.00
2023-04-21T20:44:48.453Z,18.20
2023-04-21T20:47:17.515Z,17.97
2023-04-21T20:49:47.291Z,17.94
2023-04-21T20:52:15.294Z,17.96
2023-04-21T20:54:43.164Z,17.77
2023-04-21T20:57:12.059Z,17.92
2023-04-21T20:59:40.199Z,17.83
2023-04-21T21:02:09.899Z,17.81
2023-04-21T21:04:37.984Z,17.72
2023-04-21T21:07:06.426Z,17.54
2023-04-21T21:09:34.423Z,17.56
2023-04-21T21:12:02.374Z,17.84
2023-04-21T21:14:30.354Z,17.64
2023-04-21T21:16:58.468Z,17.69
2023-04-21T21:19:27.899Z,17.72
2023-04-21T21:21:55.751Z,17.91
2023-04-21T21:24:24.899Z,17.68
2023-04-21T21:26:52.761Z,17.68
2023-04-21T21:29:20.625Z,17.45
2023-04-21T21:31:48.533Z,17.33
2023-04-21T21:34:16.424Z,17.44
2023-04-21T21:36:45.637Z,17.32
2023-04-21T21:39:13.537Z,17.45
2023-04-21T21:41:41.380Z,17.54
2023-04-21T21:44:10.424Z,17.28
2023-04-21T21:46:38.361Z,17.40
2023-04-21T21:49:06.280Z,17.34
2023-04-21T21:51:34.156Z,16.84
2023-04-21T21:54:03.362Z,17.16
2023-04-21T21:56:31.264Z,17.24
2023-04-21T21:58:59.528Z,17.41
2023-04-21T22:01:27.459Z,17.27
2023-04-21T22:03:55.464Z,17.18
2023-04-21T22:06:24.449Z,17.21
2023-04-21T22:08:52.715Z,17.33
2023-04-21T22:11:22.055Z,16.97
2023-04-21T22:13:49.891Z,16.90
2023-04-21T22:16:18.605Z,16.92
2023-04-21T22:18:48.445Z,17.17
2023-04-21T22:21:16.396Z,17.10
2023-04-21T22:23:44.280Z,17.12
2023-04-21T22:26:12.286Z,17.28
2023-04-21T22:28:43.525Z,17.23
2023-04-21T22:31:11.583Z,17.05
2023-04-21T22:33:39.502Z,17.08
2023-04-21T22:36:09.797Z,17.12
2023-04-21T22:38:38.350Z,16.91
2023-04-21T22:41:06.497Z,17.00
2023-04-21T22:43:34.367Z,16.95
2023-04-21T22:46:03.643Z,16.76
2023-04-21T22:48:32.781Z,16.75
2023-04-21T22:51:01.473Z,16.93
2023-04-21T22:53:29.431Z,16.49
2023-04-21T22:55:57.309Z,16.78
2023-04-21T22:58:26.075Z,16.78
2023-04-21T23:00:54.064Z,16.65
2023-04-21T23:03:23.765Z,16.67
2023-04-21T23:05:51.869Z,16.59
2023-04-21T23:08:19.766Z,16.73
2023-04-21T23:10:47.653Z,16.66
2023-04-21T23:13:15.560Z,16.58
2023-04-21T23:15:43.412Z,16.37
2023-04-21T23:18:11.328Z,16.66
2023-04-21T23:20:40.767Z,16.55
2023-04-21T23:23:08.648Z,16.45
2023-04-21T23:25:36.563Z,16.33
2023-04-21T23:28:04.440Z,16.42
2023-04-21T23:30:32.354Z,16.41
2023-04-21T23:33:00.870Z,16.32
2023-04-21T23:35:28.938Z,16.24
2023-04-21T23:37:58.398Z,16.24
2023-04-21T23:40:26.350Z,16.36
2023-04-21T23:42:54.213Z,16.24
2023-04-21T23:45:22.231Z,16.28
2023-04-21T23:47:50.078Z,16.14
2023-04-21T23:50:18.054Z,16.17
2023-04-21T23:52:46.077Z,16.21
2023-04-21T23:55:16.181Z,16.06
2023-04-21T23:57:46.774Z,15.84
